sensor_id;sensor_type;location;lat;lon;timestamp;temperature;humidity
57576;DHT22;43412;-33.800;150.804;2023-04-03T00:01:15;25.10;99.90
57576;DHT22;43412;-33.800;150.804;2023-04-03T00:03:43;25.00;99.90
57576;DHT22;43412;-33.800;150.804;2023-04-03T00:06:11;24.70;99.90
57576;DHT22;43412;-33.800;150.804;2023-04-03T00:08:39;24.70;99.90
57576;DHT22;43412;-33.800;150.804;2023-04-03T00:11:07;24.70;99.90
57576;DHT22;43412;-33.800;150.804;2023-04-03T00:13:35;24.70;99.90
57576;DHT22;43412;-33.800;150.804;2023-04-03T00:16:03;24.60;99.90
57576;DHT22;43412;-33.800;150.804;2023-04-03T00:18:30;24.30;99.90
57576;DHT22;43412;-33.800;150.804;2023-04-03T00:20:58;24.00;99.90
57576;DHT22;43412;-33.800;150.804;2023-04-03T00:23:26;23.70;99.90
57576;DHT22;43412;-33.800;150.804;2023-04-03T00:25:53;23.60;99.90
57576;DHT22;43412;-33.800;150.804;2023-04-03T00:28:22;23.40;99.90
57576;DHT22;43412;-33.800;150.804;2023-04-03T00:30:50;23.30;99.90
57576;DHT22;43412;-33.800;150.804;2023-04-03T00:33:18;23.30;99.90
57576;DHT22;43412;-33.800;150.804;2023-04-03T00:35:51;23.50;99.90
57576;DHT22;43412;-33.800;150.804;2023-04-03T00:38:18;23.60;99.90
57576;DHT22;43412;-33.800;150.804;2023-04-03T00:40:47;23.70;99.90
57576;DHT22;43412;-33.800;150.804;2023-04-03T00:43:18;23.70;99.90
57576;DHT22;43412;-33.800;150.804;2023-04-03T00:45:51;23.70;99.90
57576;DHT22;43412;-33.800;150.804;2023-04-03T00:50:56;23.70;99.90
57576;DHT22;43412;-33.800;150.804;2023-04-03T00:53:40;23.70;99.90
57576;DHT22;43412;-33.800;150.804;2023-04-03T00:56:12;23.70;99.90
57576;DHT22;43412;-33.800;150.804;2023-04-03T00:58:51;23.70;99.90
57576;DHT22;43412;-33.800;150.804;2023-04-03T01:01:23;23.70;99.90
57576;DHT22;43412;-33.800;150.804;2023-04-03T01:03:51;23.60;99.90
57576;DHT22;43412;-33.800;150.804;2023-04-03T01:06:28;23.70;99.90
57576;DHT22;43412;-33.800;150.804;2023-04-03T01:08:57;23.70;99.90
57576;DHT22;43412;-33.800;150.804;2023-04-03T01:11:25;23.80;99.90
57576;DHT22;43412;-33.800;150.804;2023-04-03T01:13:53;23.90;99.90
57576;DHT22;43412;-33.800;150.804;2023-04-03T01:16:20;24.00;99.90
57576;DHT22;43412;-33.800;150.804;2023-04-03T01:18:48;24.00;99.90
57576;DHT22;43412;-33.800;150.804;2023-04-03T01:21:24;23.90;99.90
57576;DHT22;43412;-33.800;150.804;2023-04-03T01:24:21;23.90;99.90
57576;DHT22;43412;-33.800;150.804;2023-04-03T01:26:49;24.10;99.90
57576;DHT22;43412;-33.800;150.804;2023-04-03T01:29:17;24.50;99.90
57576;DHT22;43412;-33.800;150.804;2023-04-03T01:31:55;25.00;99.90
57576;DHT22;43412;-33.800;150.804;2023-04-03T01:34:24;25.00;99.90
57576;DHT22;43412;-33.800;150.804;2023-04-03T01:36:52;25.00;99.90
57576;DHT22;43412;-33.800;150.804;2023-04-03T01:39:19;25.20;99.90
57576;DHT22;43412;-33.800;150.804;2023-04-03T01:41:48;25.40;99.90
57576;DHT22;43412;-33.800;150.804;2023-04-03T01:44:15;25.40;99.90
57576;DHT22;43412;-33.800;150.804;2023-04-03T01:46:43;25.20;99.90
57576;DHT22;43412;-33.800;150.804;2023-04-03T01:49:11;25.00;99.90
57576;DHT22;43412;-33.800;150.804;2023-04-03T01:51:38;24.90;99.90
57576;DHT22;43412;-33.800;150.804;2023-04-03T01:54:05;24.80;99.90
57576;DHT22;43412;-33.800;150.804;2023-04-03T01:56:33;24.70;99.90
57576;DHT22;43412;-33.800;150.804;2023-04-03T01:59:00;24.70;99.90
57576;DHT22;43412;-33.800;150.804;2023-04-03T02:01:27;24.90;99.90
57576;DHT22;43412;-33.800;150.804;2023-04-03T02:03:54;25.00;99.90
57576;DHT22;43412;-33.800;150.804;2023-04-03T02:06:22;25.30;99.90
57576;DHT22;43412;-33.800;150.804;2023-04-03T02:08:49;25.90;99.90
57576;DHT22;43412;-33.800;150.804;2023-04-03T02:11:16;26.10;99.90
57576;DHT22;43412;-33.800;150.804;2023-04-03T02:13:44;26.10;99.90
57576;DHT22;43412;-33.800;150.804;2023-04-03T02:16:11;26.30;99.90
57576;DHT22;43412;-33.800;150.804;2023-04-03T02:18:39;26.80;99.90
57576;DHT22;43412;-33.800;150.804;2023-04-03T02:21:07;27.40;99.90
57576;DHT22;43412;-33.800;150.804;2023-04-03T02:23:34;27.30;99.90
57576;DHT22;43412;-33.800;150.804;2023-04-03T02:26:14;26.90;99.90
57576;DHT22;43412;-33.800;150.804;2023-04-03T02:28:42;26.70;99.90
57576;DHT22;43412;-33.800;150.804;2023-04-03T02:31:10;26.50;99.90
57576;DHT22;43412;-33.800;150.804;2023-04-03T02:33:38;26.30;99.90
57576;DHT22;43412;-33.800;150.804;2023-04-03T02:36:07;26.00;99.90
57576;DHT22;43412;-33.800;150.804;2023-04-03T02:38:34;25.70;99.90
57576;DHT22;43412;-33.800;150.804;2023-04-03T02:41:04;25.40;99.90
57576;DHT22;43412;-33.800;150.804;2023-04-03T02:43:32;25.20;99.90
57576;DHT22;43412;-33.800;150.804;2023-04-03T02:46:00;25.00;99.90
57576;DHT22;43412;-33.800;150.804;2023-04-03T02:48:27;25.00;99.90
57576;DHT22;43412;-33.800;150.804;2023-04-03T02:50:55;24.80;99.90
57576;DHT22;43412;-33.800;150.804;2023-04-03T02:53:22;24.70;99.90
57576;DHT22;43412;-33.800;150.804;2023-04-03T02:55:50;24.50;99.90
57576;DHT22;43412;-33.800;150.804;2023-04-03T02:58:17;24.50;99.90
57576;DHT22;43412;-33.800;150.804;2023-04-03T03:00:45;25.00;99.90
57576;DHT22;43412;-33.800;150.804;2023-04-03T03:03:12;26.10;99.90
57576;DHT22;43412;-33.800;150.804;2023-04-03T03:05:40;26.60;99.90
57576;DHT22;43412;-33.800;150.804;2023-04-03T03:08:08;26.60;99.90
57576;DHT22;43412;-33.800;150.804;2023-04-03T03:10:35;26.50;99.90
57576;DHT22;43412;-33.800;150.804;2023-04-03T03:13:02;26.30;99.90
57576;DHT22;43412;-33.800;150.804;2023-04-03T03:15:30;26.10;99.90
57576;DHT22;43412;-33.800;150.804;2023-04-03T03:17:57;26.00;99.90
57576;DHT22;43412;-33.800;150.804;2023-04-03T03:20:24;26.10;99.90
57576;DHT22;43412;-33.800;150.804;2023-04-03T03:22:51;26.20;99.90
57576;DHT22;43412;-33.800;150.804;2023-04-03T03:25:19;26.20;99.90
57576;DHT22;43412;-33.800;150.804;2023-04-03T03:27:46;26.00;99.90
57576;DHT22;43412;-33.800;150.804;2023-04-03T03:30:13;25.80;99.90
57576;DHT22;43412;-33.800;150.804;2023-04-03T03:32:41;26.00;99.90
57576;DHT22;43412;-33.800;150.804;2023-04-03T03:35:08;26.40;99.90
57576;DHT22;43412;-33.800;150.804;2023-04-03T03:37:36;26.10;99.90
57576;DHT22;43412;-33.800;150.804;2023-04-03T03:40:03;26.10;99.90
57576;DHT22;43412;-33.800;150.804;2023-04-03T03:42:31;25.70;99.90
57576;DHT22;43412;-33.800;150.804;2023-04-03T03:44:58;25.50;99.90
57576;DHT22;43412;-33.800;150.804;2023-04-03T03:47:25;25.20;99.90
57576;DHT22;43412;-33.800;150.804;2023-04-03T03:49:53;24.80;99.90
57576;DHT22;43412;-33.800;150.804;2023-04-03T03:52:20;24.50;99.90
57576;DHT22;43412;-33.800;150.804;2023-04-03T03:54:48;24.00;99.90
57576;DHT22;43412;-33.800;150.804;2023-04-03T03:57:15;23.30;99.90
57576;DHT22;43412;-33.800;150.804;2023-04-03T03:59:43;22.60;99.90
57576;DHT22;43412;-33.800;150.804;2023-04-03T04:02:11;22.10;99.90
57576;DHT22;43412;-33.800;150.804;2023-04-03T04:04:38;21.50;99.90
57576;DHT22;43412;-33.800;150.804;2023-04-03T04:07:06;20.90;99.90
57576;DHT22;43412;-33.800;150.804;2023-04-03T04:09:33;20.40;99.90
57576;DHT22;43412;-33.800;150.804;2023-04-03T04:12:00;20.30;99.90
57576;DHT22;43412;-33.800;150.804;2023-04-03T04:14:28;20.20;99.90
57576;DHT22;43412;-33.800;150.804;2023-04-03T04:16:55;20.30;99.90
57576;DHT22;43412;-33.800;150.804;2023-04-03T04:19:22;20.50;99.90
57576;DHT22;43412;-33.800;150.804;2023-04-03T04:21:50;20.80;99.90
57576;DHT22;43412;-33.800;150.804;2023-04-03T04:24:17;21.10;99.90
57576;DHT22;43412;-33.800;150.804;2023-04-03T04:26:44;21.20;99.90
57576;DHT22;43412;-33.800;150.804;2023-04-03T04:29:12;21.20;99.90
57576;DHT22;43412;-33.800;150.804;2023-04-03T04:31:39;21.10;99.90
57576;DHT22;43412;-33.800;150.804;2023-04-03T04:34:08;21.00;99.90
57576;DHT22;43412;-33.800;150.804;2023-04-03T04:36:39;20.90;99.90
57576;DHT22;43412;-33.800;150.804;2023-04-03T04:39:07;20.70;99.90
57576;DHT22;43412;-33.800;150.804;2023-04-03T04:41:34;20.70;99.90
57576;DHT22;43412;-33.800;150.804;2023-04-03T04:44:02;20.70;99.90
57576;DHT22;43412;-33.800;150.804;2023-04-03T04:46:29;20.70;99.90
57576;DHT22;43412;-33.800;150.804;2023-04-03T04:48:57;20.80;99.90
57576;DHT22;43412;-33.800;150.804;2023-04-03T04:51:24;20.80;99.90
57576;DHT22;43412;-33.800;150.804;2023-04-03T04:53:52;20.80;99.90
57576;DHT22;43412;-33.800;150.804;2023-04-03T04:56:19;20.90;99.90
57576;DHT22;43412;-33.800;150.804;2023-04-03T04:58:47;21.00;99.90
57576;DHT22;43412;-33.800;150.804;2023-04-03T05:01:14;21.10;99.90
57576;DHT22;43412;-33.800;150.804;2023-04-03T05:03:42;21.20;99.90
57576;DHT22;43412;-33.800;150.804;2023-04-03T05:06:09;21.30;99.90
57576;DHT22;43412;-33.800;150.804;2023-04-03T05:08:36;21.40;99.90
57576;DHT22;43412;-33.800;150.804;2023-04-03T05:11:04;21.40;99.90
57576;DHT22;43412;-33.800;150.804;2023-04-03T05:13:31;21.50;99.90
57576;DHT22;43412;-33.800;150.804;2023-04-03T05:15:59;21.60;99.90
57576;DHT22;43412;-33.800;150.804;2023-04-03T05:18:26;21.70;99.90
57576;DHT22;43412;-33.800;150.804;2023-04-03T05:20:53;21.80;99.90
57576;DHT22;43412;-33.800;150.804;2023-04-03T05:23:21;21.80;99.90
57576;DHT22;43412;-33.800;150.804;2023-04-03T05:25:48;21.90;99.90
57576;DHT22;43412;-33.800;150.804;2023-04-03T05:28:16;21.90;99.90
57576;DHT22;43412;-33.800;150.804;2023-04-03T05:30:43;22.00;99.90
57576;DHT22;43412;-33.800;150.804;2023-04-03T05:33:10;22.00;99.90
57576;DHT22;43412;-33.800;150.804;2023-04-03T05:35:38;22.10;99.90
57576;DHT22;43412;-33.800;150.804;2023-04-03T05:38:07;22.20;99.90
57576;DHT22;43412;-33.800;150.804;2023-04-03T05:40:35;22.20;99.90
57576;DHT22;43412;-33.800;150.804;2023-04-03T05:43:02;22.20;99.90
57576;DHT22;43412;-33.800;150.804;2023-04-03T05:45:30;22.20;99.90
57576;DHT22;43412;-33.800;150.804;2023-04-03T05:47:57;22.20;99.90
57576;DHT22;43412;-33.800;150.804;2023-04-03T05:50:25;22.20;99.90
57576;DHT22;43412;-33.800;150.804;2023-04-03T05:52:54;22.20;99.90
57576;DHT22;43412;-33.800;150.804;2023-04-03T05:55:22;22.20;99.90
57576;DHT22;43412;-33.800;150.804;2023-04-03T05:57:49;22.10;99.90
57576;DHT22;43412;-33.800;150.804;2023-04-03T06:00:17;22.10;99.90
57576;DHT22;43412;-33.800;150.804;2023-04-03T06:02:44;22.20;99.90
57576;DHT22;43412;-33.800;150.804;2023-04-03T06:05:12;22.20;99.90
57576;DHT22;43412;-33.800;150.804;2023-04-03T06:07:39;22.20;99.90
57576;DHT22;43412;-33.800;150.804;2023-04-03T06:10:08;22.30;99.90
57576;DHT22;43412;-33.800;150.804;2023-04-03T06:12:35;22.20;99.90
57576;DHT22;43412;-33.800;150.804;2023-04-03T06:15:03;22.20;99.90
57576;DHT22;43412;-33.800;150.804;2023-04-03T06:17:31;22.10;99.90
57576;DHT22;43412;-33.800;150.804;2023-04-03T06:19:58;22.10;99.90
57576;DHT22;43412;-33.800;150.804;2023-04-03T06:22:25;22.10;99.90
57576;DHT22;43412;-33.800;150.804;2023-04-03T06:24:53;22.10;99.90
57576;DHT22;43412;-33.800;150.804;2023-04-03T06:27:21;22.10;99.90
57576;DHT22;43412;-33.800;150.804;2023-04-03T06:29:48;22.00;99.90
57576;DHT22;43412;-33.800;150.804;2023-04-03T06:32:16;22.00;99.90
57576;DHT22;43412;-33.800;150.804;2023-04-03T06:34:44;22.00;99.90
57576;DHT22;43412;-33.800;150.804;2023-04-03T06:37:20;22.00;99.90
57576;DHT22;43412;-33.800;150.804;2023-04-03T06:39:48;21.90;99.90
57576;DHT22;43412;-33.800;150.804;2023-04-03T06:42:15;21.90;99.90
57576;DHT22;43412;-33.800;150.804;2023-04-03T06:44:43;21.90;99.90
57576;DHT22;43412;-33.800;150.804;2023-04-03T06:47:13;21.90;99.90
57576;DHT22;43412;-33.800;150.804;2023-04-03T06:49:42;21.90;99.90
57576;DHT22;43412;-33.800;150.804;2023-04-03T06:52:10;22.00;99.90
57576;DHT22;43412;-33.800;150.804;2023-04-03T06:54:40;22.00;99.90
57576;DHT22;43412;-33.800;150.804;2023-04-03T06:57:08;22.00;99.90
57576;DHT22;43412;-33.800;150.804;2023-04-03T06:59:35;21.90;99.90
57576;DHT22;43412;-33.800;150.804;2023-04-03T07:02:03;21.90;99.90
57576;DHT22;43412;-33.800;150.804;2023-04-03T07:04:31;21.90;99.90
57576;DHT22;43412;-33.800;150.804;2023-04-03T07:06:58;21.80;99.90
57576;DHT22;43412;-33.800;150.804;2023-04-03T07:09:26;21.70;99.90
57576;DHT22;43412;-33.800;150.804;2023-04-03T07:11:53;21.60;99.90
57576;DHT22;43412;-33.800;150.804;2023-04-03T07:14:20;21.50;99.90
57576;DHT22;43412;-33.800;150.804;2023-04-03T07:16:49;21.50;99.90
57576;DHT22;43412;-33.800;150.804;2023-04-03T07:19:16;21.50;99.90
57576;DHT22;43412;-33.800;150.804;2023-04-03T07:21:45;21.50;99.90
57576;DHT22;43412;-33.800;150.804;2023-04-03T07:24:12;21.50;99.90
57576;DHT22;43412;-33.800;150.804;2023-04-03T07:26:39;21.40;99.90
57576;DHT22;43412;-33.800;150.804;2023-04-03T07:29:07;21.40;99.90
57576;DHT22;43412;-33.800;150.804;2023-04-03T07:31:35;21.30;99.90
57576;DHT22;43412;-33.800;150.804;2023-04-03T07:34:02;21.20;99.90
57576;DHT22;43412;-33.800;150.804;2023-04-03T07:36:30;21.20;99.90
57576;DHT22;43412;-33.800;150.804;2023-04-03T07:38:59;21.20;99.90
57576;DHT22;43412;-33.800;150.804;2023-04-03T07:41:27;21.10;99.90
57576;DHT22;43412;-33.800;150.804;2023-04-03T07:43:55;21.00;99.90
57576;DHT22;43412;-33.800;150.804;2023-04-03T07:46:23;20.90;99.90
57576;DHT22;43412;-33.800;150.804;2023-04-03T07:48:50;20.90;99.90
57576;DHT22;43412;-33.800;150.804;2023-04-03T07:51:18;20.90;99.90
57576;DHT22;43412;-33.800;150.804;2023-04-03T07:53:46;20.90;99.90
57576;DHT22;43412;-33.800;150.804;2023-04-03T07:56:13;20.80;99.90
57576;DHT22;43412;-33.800;150.804;2023-04-03T07:58:41;20.80;99.90
57576;DHT22;43412;-33.800;150.804;2023-04-03T08:01:08;20.80;99.90
57576;DHT22;43412;-33.800;150.804;2023-04-03T08:03:36;20.80;99.90
57576;DHT22;43412;-33.800;150.804;2023-04-03T08:06:06;20.70;99.90
57576;DHT22;43412;-33.800;150.804;2023-04-03T08:08:34;20.60;99.90
57576;DHT22;43412;-33.800;150.804;2023-04-03T08:11:02;20.60;99.90
57576;DHT22;43412;-33.800;150.804;2023-04-03T08:13:32;20.60;99.90
57576;DHT22;43412;-33.800;150.804;2023-04-03T08:16:17;20.70;99.90
57576;DHT22;43412;-33.800;150.804;2023-04-03T08:18:44;20.60;99.90
57576;DHT22;43412;-33.800;150.804;2023-04-03T08:21:12;20.50;99.90
57576;DHT22;43412;-33.800;150.804;2023-04-03T08:23:42;20.50;99.90
57576;DHT22;43412;-33.800;150.804;2023-04-03T08:26:14;20.50;99.90
57576;DHT22;43412;-33.800;150.804;2023-04-03T08:28:42;20.40;99.90
57576;DHT22;43412;-33.800;150.804;2023-04-03T08:31:16;20.40;99.90
57576;DHT22;43412;-33.800;150.804;2023-04-03T08:33:45;20.30;99.90
57576;DHT22;43412;-33.800;150.804;2023-04-03T08:36:21;20.20;99.90
57576;DHT22;43412;-33.800;150.804;2023-04-03T08:38:50;20.20;99.90
57576;DHT22;43412;-33.800;150.804;2023-04-03T08:41:38;20.10;99.90
57576;DHT22;43412;-33.800;150.804;2023-04-03T08:47:28;20.00;99.90
57576;DHT22;43412;-33.800;150.804;2023-04-03T08:50:22;19.90;99.90
57576;DHT22;43412;-33.800;150.804;2023-04-03T08:52:56;19.80;99.90
57576;DHT22;43412;-33.800;150.804;2023-04-03T08:55:33;19.80;99.90
57576;DHT22;43412;-33.800;150.804;2023-04-03T08:58:09;19.70;99.90
57576;DHT22;43412;-33.800;150.804;2023-04-03T09:03:23;19.60;99.90
57576;DHT22;43412;-33.800;150.804;2023-04-03T09:12:32;19.50;99.90
57576;DHT22;43412;-33.800;150.804;2023-04-03T09:15:20;19.40;99.90
57576;DHT22;43412;-33.800;150.804;2023-04-03T09:20:41;19.30;99.90
57576;DHT22;43412;-33.800;150.804;2023-04-03T09:25:56;19.30;99.90
57576;DHT22;43412;-33.800;150.804;2023-04-03T09:28:24;19.30;99.90
57576;DHT22;43412;-33.800;150.804;2023-04-03T09:30:52;19.20;99.90
57576;DHT22;43412;-33.800;150.804;2023-04-03T09:33:21;19.20;99.90
57576;DHT22;43412;-33.800;150.804;2023-04-03T09:35:49;19.20;99.90
57576;DHT22;43412;-33.800;150.804;2023-04-03T09:38:20;19.20;99.90
57576;DHT22;43412;-33.800;150.804;2023-04-03T09:40:50;19.20;99.90
57576;DHT22;43412;-33.800;150.804;2023-04-03T09:43:22;19.20;99.90
57576;DHT22;43412;-33.800;150.804;2023-04-03T09:45:52;19.20;99.90
57576;DHT22;43412;-33.800;150.804;2023-04-03T09:48:21;19.20;99.90
57576;DHT22;43412;-33.800;150.804;2023-04-03T09:50:56;19.20;99.90
57576;DHT22;43412;-33.800;150.804;2023-04-03T09:53:43;19.20;99.90
57576;DHT22;43412;-33.800;150.804;2023-04-03T09:59:07;19.10;99.90
57576;DHT22;43412;-33.800;150.804;2023-04-03T10:01:41;19.10;99.90
57576;DHT22;43412;-33.800;150.804;2023-04-03T10:04:17;19.00;99.90
57576;DHT22;43412;-33.800;150.804;2023-04-03T10:06:53;18.90;99.90
57576;DHT22;43412;-33.800;150.804;2023-04-03T10:09:27;18.90;99.90
57576;DHT22;43412;-33.800;150.804;2023-04-03T10:14:33;18.70;99.90
57576;DHT22;43412;-33.800;150.804;2023-04-03T10:19:58;18.70;99.90
57576;DHT22;43412;-33.800;150.804;2023-04-03T10:31:24;18.40;99.90
57576;DHT22;43412;-33.800;150.804;2023-04-03T10:50:46;18.10;99.90
57576;DHT22;43412;-33.800;150.804;2023-04-03T10:56:19;18.10;99.90
57576;DHT22;43412;-33.800;150.804;2023-04-03T10:59:33;18.00;99.90
57576;DHT22;43412;-33.800;150.804;2023-04-03T11:04:48;17.90;99.90
57576;DHT22;43412;-33.800;150.804;2023-04-03T11:07:20;17.90;99.90
57576;DHT22;43412;-33.800;150.804;2023-04-03T11:09:54;17.80;99.90
57576;DHT22;43412;-33.800;150.804;2023-04-03T11:12:33;17.70;99.90
57576;DHT22;43412;-33.800;150.804;2023-04-03T11:15:04;17.70;99.90
57576;DHT22;43412;-33.800;150.804;2023-04-03T11:17:48;17.60;99.90
57576;DHT22;43412;-33.800;150.804;2023-04-03T11:20:30;17.60;99.90
57576;DHT22;43412;-33.800;150.804;2023-04-03T11:23:15;17.50;99.90
57576;DHT22;43412;-33.800;150.804;2023-04-03T11:25:45;17.50;99.90
57576;DHT22;43412;-33.800;150.804;2023-04-03T11:28:14;17.40;99.90
57576;DHT22;43412;-33.800;150.804;2023-04-03T11:31:22;17.40;99.90
57576;DHT22;43412;-33.800;150.804;2023-04-03T11:33:58;17.30;99.90
57576;DHT22;43412;-33.800;150.804;2023-04-03T11:36:41;17.30;99.90
57576;DHT22;43412;-33.800;150.804;2023-04-03T11:39:33;17.30;99.90
57576;DHT22;43412;-33.800;150.804;2023-04-03T11:45:34;17.30;99.90
57576;DHT22;43412;-33.800;150.804;2023-04-03T11:48:06;17.30;99.90
57576;DHT22;43412;-33.800;150.804;2023-04-03T11:50:52;17.30;99.90
57576;DHT22;43412;-33.800;150.804;2023-04-03T11:53:36;17.30;99.90
57576;DHT22;43412;-33.800;150.804;2023-04-03T11:56:34;17.30;99.90
57576;DHT22;43412;-33.800;150.804;2023-04-03T12:01:55;17.30;99.90
57576;DHT22;43412;-33.800;150.804;2023-04-03T12:04:25;17.30;99.90
57576;DHT22;43412;-33.800;150.804;2023-04-03T12:06:58;17.30;99.90
57576;DHT22;43412;-33.800;150.804;2023-04-03T12:09:54;17.30;99.90
57576;DHT22;43412;-33.800;150.804;2023-04-03T12:12:39;17.30;99.90
57576;DHT22;43412;-33.800;150.804;2023-04-03T12:15:26;17.30;99.90
57576;DHT22;43412;-33.800;150.804;2023-04-03T12:21:14;17.30;99.90
57576;DHT22;43412;-33.800;150.804;2023-04-03T12:24:00;17.20;99.90
57576;DHT22;43412;-33.800;150.804;2023-04-03T12:35:28;17.00;99.90
57576;DHT22;43412;-33.800;150.804;2023-04-03T12:46:46;16.80;99.90
57576;DHT22;43412;-33.800;150.804;2023-04-03T12:49:38;16.70;99.90
57576;DHT22;43412;-33.800;150.804;2023-04-03T12:54:52;16.60;99.90
57576;DHT22;43412;-33.800;150.804;2023-04-03T12:57:23;16.60;99.90
57576;DHT22;43412;-33.800;150.804;2023-04-03T12:59:51;16.50;99.90
57576;DHT22;43412;-33.800;150.804;2023-04-03T13:02:31;16.50;99.90
57576;DHT22;43412;-33.800;150.804;2023-04-03T13:05:08;16.40;99.90
57576;DHT22;43412;-33.800;150.804;2023-04-03T13:07:37;16.40;99.90
57576;DHT22;43412;-33.800;150.804;2023-04-03T13:12:35;16.40;99.90
57576;DHT22;43412;-33.800;150.804;2023-04-03T13:17:47;16.30;99.90
57576;DHT22;43412;-33.800;150.804;2023-04-03T13:20:28;16.30;99.90
57576;DHT22;43412;-33.800;150.804;2023-04-03T13:23:07;16.30;99.90
57576;DHT22;43412;-33.800;150.804;2023-04-03T13:25:42;16.30;99.90
57576;DHT22;43412;-33.800;150.804;2023-04-03T13:28:14;16.20;99.90
57576;DHT22;43412;-33.800;150.804;2023-04-03T13:30:59;16.20;99.90
57576;DHT22;43412;-33.800;150.804;2023-04-03T13:33:30;16.10;99.90
57576;DHT22;43412;-33.800;150.804;2023-04-03T13:36:20;16.10;99.90
57576;DHT22;43412;-33.800;150.804;2023-04-03T13:39:03;16.10;99.90
57576;DHT22;43412;-33.800;150.804;2023-04-03T13:41:36;16.10;99.90
57576;DHT22;43412;-33.800;150.804;2023-04-03T13:46:51;16.10;99.90
57576;DHT22;43412;-33.800;150.804;2023-04-03T13:54:57;16.10;99.90
57576;DHT22;43412;-33.800;150.804;2023-04-03T13:57:25;16.00;99.90
57576;DHT22;43412;-33.800;150.804;2023-04-03T13:59:53;16.00;99.90
57576;DHT22;43412;-33.800;150.804;2023-04-03T14:02:39;16.00;99.90
57576;DHT22;43412;-33.800;150.804;2023-04-03T14:05:07;16.00;99.90
57576;DHT22;43412;-33.800;150.804;2023-04-03T14:07:35;16.10;99.90
57576;DHT22;43412;-33.800;150.804;2023-04-03T14:10:03;16.00;99.90
57576;DHT22;43412;-33.800;150.804;2023-04-03T14:12:35;16.10;99.90
57576;DHT22;43412;-33.800;150.804;2023-04-03T14:15:17;16.10;99.90
57576;DHT22;43412;-33.800;150.804;2023-04-03T14:17:45;16.10;99.90
57576;DHT22;43412;-33.800;150.804;2023-04-03T14:20:18;16.10;99.90
57576;DHT22;43412;-33.800;150.804;2023-04-03T14:22:47;16.10;99.90
57576;DHT22;43412;-33.800;150.804;2023-04-03T14:25:15;16.10;99.90
57576;DHT22;43412;-33.800;150.804;2023-04-03T14:27:46;16.20;99.90
57576;DHT22;43412;-33.800;150.804;2023-04-03T14:30:23;16.20;99.90
57576;DHT22;43412;-33.800;150.804;2023-04-03T14:32:51;16.20;99.90
57576;DHT22;43412;-33.800;150.804;2023-04-03T14:35:19;16.10;99.90
57576;DHT22;43412;-33.800;150.804;2023-04-03T14:37:47;16.10;99.90
57576;DHT22;43412;-33.800;150.804;2023-04-03T14:40:19;16.00;99.90
57576;DHT22;43412;-33.800;150.804;2023-04-03T14:42:47;16.00;99.90
57576;DHT22;43412;-33.800;150.804;2023-04-03T14:45:16;15.90;99.90
57576;DHT22;43412;-33.800;150.804;2023-04-03T14:47:47;15.90;99.90
57576;DHT22;43412;-33.800;150.804;2023-04-03T14:50:21;15.90;99.90
57576;DHT22;43412;-33.800;150.804;2023-04-03T14:52:51;15.90;99.90
57576;DHT22;43412;-33.800;150.804;2023-04-03T14:55:22;15.90;99.90
57576;DHT22;43412;-33.800;150.804;2023-04-03T14:57:51;15.90;99.90
57576;DHT22;43412;-33.800;150.804;2023-04-03T15:00:21;15.90;99.90
57576;DHT22;43412;-33.800;150.804;2023-04-03T15:02:49;15.80;99.90
57576;DHT22;43412;-33.800;150.804;2023-04-03T15:05:16;15.80;99.90
57576;DHT22;43412;-33.800;150.804;2023-04-03T15:07:52;15.80;99.90
57576;DHT22;43412;-33.800;150.804;2023-04-03T15:10:26;15.80;99.90
57576;DHT22;43412;-33.800;150.804;2023-04-03T15:12:54;15.80;99.90
57576;DHT22;43412;-33.800;150.804;2023-04-03T15:15:23;15.80;99.90
57576;DHT22;43412;-33.800;150.804;2023-04-03T15:17:53;15.80;99.90
57576;DHT22;43412;-33.800;150.804;2023-04-03T15:20:24;15.80;99.90
57576;DHT22;43412;-33.800;150.804;2023-04-03T15:22:53;15.90;99.90
57576;DHT22;43412;-33.800;150.804;2023-04-03T15:25:23;15.90;99.90
57576;DHT22;43412;-33.800;150.804;2023-04-03T15:27:52;16.00;99.90
57576;DHT22;43412;-33.800;150.804;2023-04-03T15:30:20;16.00;99.90
57576;DHT22;43412;-33.800;150.804;2023-04-03T15:32:48;16.00;99.90
57576;DHT22;43412;-33.800;150.804;2023-04-03T15:35:15;16.00;99.90
57576;DHT22;43412;-33.800;150.804;2023-04-03T15:37:42;16.10;99.90
57576;DHT22;43412;-33.800;150.804;2023-04-03T15:40:10;16.10;99.90
57576;DHT22;43412;-33.800;150.804;2023-04-03T15:42:38;16.10;99.90
57576;DHT22;43412;-33.800;150.804;2023-04-03T15:45:06;16.10;99.90
57576;DHT22;43412;-33.800;150.804;2023-04-03T15:47:34;16.20;99.90
57576;DHT22;43412;-33.800;150.804;2023-04-03T15:50:02;16.30;99.90
57576;DHT22;43412;-33.800;150.804;2023-04-03T15:52:32;16.30;99.90
57576;DHT22;43412;-33.800;150.804;2023-04-03T15:54:59;16.40;99.90
57576;DHT22;43412;-33.800;150.804;2023-04-03T15:57:27;16.40;99.90
57576;DHT22;43412;-33.800;150.804;2023-04-03T15:59:54;16.50;99.90
57576;DHT22;43412;-33.800;150.804;2023-04-03T16:02:23;16.50;99.90
57576;DHT22;43412;-33.800;150.804;2023-04-03T16:04:54;16.50;99.90
57576;DHT22;43412;-33.800;150.804;2023-04-03T16:07:22;16.50;99.90
57576;DHT22;43412;-33.800;150.804;2023-04-03T16:09:49;16.50;99.90
57576;DHT22;43412;-33.800;150.804;2023-04-03T16:12:17;16.40;99.90
57576;DHT22;43412;-33.800;150.804;2023-04-03T16:14:44;16.40;99.90
57576;DHT22;43412;-33.800;150.804;2023-04-03T16:17:11;16.40;99.90
57576;DHT22;43412;-33.800;150.804;2023-04-03T16:19:39;16.40;99.90
57576;DHT22;43412;-33.800;150.804;2023-04-03T16:22:06;16.30;99.90
57576;DHT22;43412;-33.800;150.804;2023-04-03T16:24:34;16.40;99.90
57576;DHT22;43412;-33.800;150.804;2023-04-03T16:27:02;16.40;99.90
57576;DHT22;43412;-33.800;150.804;2023-04-03T16:29:29;16.30;99.90
57576;DHT22;43412;-33.800;150.804;2023-04-03T16:31:57;16.30;99.90
57576;DHT22;43412;-33.800;150.804;2023-04-03T16:34:25;16.30;99.90
57576;DHT22;43412;-33.800;150.804;2023-04-03T16:36:53;16.40;99.90
57576;DHT22;43412;-33.800;150.804;2023-04-03T16:39:20;16.30;99.90
57576;DHT22;43412;-33.800;150.804;2023-04-03T16:41:48;16.30;99.90
57576;DHT22;43412;-33.800;150.804;2023-04-03T16:44:15;16.30;99.90
57576;DHT22;43412;-33.800;150.804;2023-04-03T16:46:42;16.30;99.90
57576;DHT22;43412;-33.800;150.804;2023-04-03T16:49:11;16.20;99.90
57576;DHT22;43412;-33.800;150.804;2023-04-03T16:51:38;16.30;99.90